Waldo, Wisconsin
Current Conditions -  °F | °C
As of 3:53 AM on Monday 22 Dec 2014 (Local Time) from KSBM Reporting Station
Haze Haze  
Wind Chill: 28°   Ceiling: 3700
Heat Index: 35°   Visibility: 6mi
Dew Point: 30°   Wind: 9mph
Humidity: 82%   Direction: 170°S
Pressure: 29.95"   Gusts: NA
Location:  43.67°N, 87.95°W
Report Text: KSBM 220953Z AUTO 17008KT 6SM HZ BKN037 OVC044 02/M01 A2995 RMK AO2 SLP150 T00171011
Loading
Personal Weather Stations






























Interactive Weather Map New forecast layout! Learn more

10-Day Weather Forecast

Advertisements
Track Severe Weather on mobile